sensor_id;sensor_type;location;lat;lon;timestamp;P1;durP1;ratioP1;P2;durP2;ratioP2
20894;SDS011;10607;42.066;24.742;2023-02-15T00:01:20;19.47;;;12.50;;
20894;SDS011;10607;42.066;24.742;2023-02-15T00:03:47;19.13;;;12.67;;
20894;SDS011;10607;42.066;24.742;2023-02-15T00:06:12;22.10;;;13.33;;
20894;SDS011;10607;42.066;24.742;2023-02-15T00:08:37;19.77;;;12.87;;
20894;SDS011;10607;42.066;24.742;2023-02-15T00:11:06;20.97;;;12.77;;
20894;SDS011;10607;42.066;24.742;2023-02-15T00:13:32;20.50;;;13.43;;
20894;SDS011;10607;42.066;24.742;2023-02-15T00:16:01;22.17;;;12.77;;
20894;SDS011;10607;42.066;24.742;2023-02-15T00:18:26;18.90;;;12.87;;
20894;SDS011;10607;42.066;24.742;2023-02-15T00:20:52;21.60;;;13.43;;
20894;SDS011;10607;42.066;24.742;2023-02-15T00:23:17;20.47;;;13.10;;
20894;SDS011;10607;42.066;24.742;2023-02-15T00:25:42;19.83;;;12.43;;
20894;SDS011;10607;42.066;24.742;2023-02-15T00:28:07;22.17;;;12.83;;
20894;SDS011;10607;42.066;24.742;2023-02-15T00:30:33;22.50;;;12.97;;
20894;SDS011;10607;42.066;24.742;2023-02-15T00:32:58;22.83;;;14.17;;
20894;SDS011;10607;42.066;24.742;2023-02-15T00:35:23;22.17;;;14.27;;
20894;SDS011;10607;42.066;24.742;2023-02-15T00:37:48;27.23;;;14.80;;
20894;SDS011;10607;42.066;24.742;2023-02-15T00:40:14;25.07;;;14.87;;
20894;SDS011;10607;42.066;24.742;2023-02-15T00:42:39;23.97;;;15.47;;
20894;SDS011;10607;42.066;24.742;2023-02-15T00:45:05;22.33;;;13.97;;
20894;SDS011;10607;42.066;24.742;2023-02-15T00:47:30;21.97;;;14.33;;
20894;SDS011;10607;42.066;24.742;2023-02-15T00:49:55;24.67;;;15.10;;
20894;SDS011;10607;42.066;24.742;2023-02-15T00:52:20;24.10;;;14.60;;
20894;SDS011;10607;42.066;24.742;2023-02-15T00:54:46;24.07;;;14.17;;
20894;SDS011;10607;42.066;24.742;2023-02-15T00:57:11;25.40;;;14.23;;
20894;SDS011;10607;42.066;24.742;2023-02-15T00:59:36;25.33;;;15.13;;
20894;SDS011;10607;42.066;24.742;2023-02-15T01:02:02;23.13;;;14.43;;
20894;SDS011;10607;42.066;24.742;2023-02-15T01:04:27;24.43;;;15.67;;
20894;SDS011;10607;42.066;24.742;2023-02-15T01:06:52;24.80;;;14.93;;
20894;SDS011;10607;42.066;24.742;2023-02-15T01:09:18;29.10;;;15.87;;
20894;SDS011;10607;42.066;24.742;2023-02-15T01:11:43;26.70;;;15.63;;
20894;SDS011;10607;42.066;24.742;2023-02-15T01:14:08;24.03;;;14.77;;
20894;SDS011;10607;42.066;24.742;2023-02-15T01:16:33;22.43;;;14.30;;
20894;SDS011;10607;42.066;24.742;2023-02-15T01:18:59;25.37;;;14.70;;
20894;SDS011;10607;42.066;24.742;2023-02-15T01:21:24;24.43;;;15.20;;
20894;SDS011;10607;42.066;24.742;2023-02-15T01:23:50;23.77;;;14.97;;
20894;SDS011;10607;42.066;24.742;2023-02-15T01:26:16;26.13;;;15.00;;
20894;SDS011;10607;42.066;24.742;2023-02-15T01:28:41;25.60;;;15.67;;
20894;SDS011;10607;42.066;24.742;2023-02-15T01:31:08;24.03;;;14.47;;
20894;SDS011;10607;42.066;24.742;2023-02-15T01:33:34;24.63;;;15.47;;
20894;SDS011;10607;42.066;24.742;2023-02-15T01:35:59;21.90;;;13.97;;
20894;SDS011;10607;42.066;24.742;2023-02-15T01:38:25;25.17;;;14.37;;
20894;SDS011;10607;42.066;24.742;2023-02-15T01:40:51;25.13;;;14.70;;
20894;SDS011;10607;42.066;24.742;2023-02-15T01:43:17;23.87;;;14.27;;
20894;SDS011;10607;42.066;24.742;2023-02-15T01:45:43;26.00;;;15.70;;
20894;SDS011;10607;42.066;24.742;2023-02-15T01:50:43;27.17;;;15.33;;
20894;SDS011;10607;42.066;24.742;2023-02-15T01:53:14;23.17;;;14.23;;
20894;SDS011;10607;42.066;24.742;2023-02-15T01:55:45;27.50;;;15.00;;
20894;SDS011;10607;42.066;24.742;2023-02-15T01:58:11;27.67;;;16.03;;
20894;SDS011;10607;42.066;24.742;2023-02-15T02:00:37;27.03;;;15.57;;
20894;SDS011;10607;42.066;24.742;2023-02-15T02:03:02;26.30;;;16.07;;
20894;SDS011;10607;42.066;24.742;2023-02-15T02:05:28;27.97;;;15.23;;
20894;SDS011;10607;42.066;24.742;2023-02-15T02:07:54;25.13;;;15.00;;
20894;SDS011;10607;42.066;24.742;2023-02-15T02:10:21;27.07;;;15.63;;
20894;SDS011;10607;42.066;24.742;2023-02-15T02:12:52;24.17;;;14.47;;
20894;SDS011;10607;42.066;24.742;2023-02-15T02:15:19;27.67;;;17.27;;
20894;SDS011;10607;42.066;24.742;2023-02-15T02:22:53;30.23;;;16.37;;
20894;SDS011;10607;42.066;24.742;2023-02-15T02:27:48;30.17;;;16.73;;
20894;SDS011;10607;42.066;24.742;2023-02-15T02:43:21;31.10;;;16.93;;
20894;SDS011;10607;42.066;24.742;2023-02-15T02:45:58;27.97;;;16.37;;
20894;SDS011;10607;42.066;24.742;2023-02-15T02:48:25;28.00;;;15.87;;
20894;SDS011;10607;42.066;24.742;2023-02-15T02:50:52;30.97;;;16.67;;
20894;SDS011;10607;42.066;24.742;2023-02-15T02:53:17;27.33;;;16.40;;
20894;SDS011;10607;42.066;24.742;2023-02-15T03:00:51;27.50;;;16.67;;
20894;SDS011;10607;42.066;24.742;2023-02-15T03:05:46;25.53;;;15.47;;
20894;SDS011;10607;42.066;24.742;2023-02-15T03:08:14;28.37;;;17.40;;
20894;SDS011;10607;42.066;24.742;2023-02-15T03:10:46;28.87;;;17.37;;
20894;SDS011;10607;42.066;24.742;2023-02-15T03:13:12;27.10;;;16.57;;
20894;SDS011;10607;42.066;24.742;2023-02-15T03:15:38;29.97;;;16.27;;
20894;SDS011;10607;42.066;24.742;2023-02-15T03:18:23;27.30;;;16.90;;
20894;SDS011;10607;42.066;24.742;2023-02-15T03:20:50;27.70;;;16.20;;
20894;SDS011;10607;42.066;24.742;2023-02-15T03:23:17;28.40;;;17.77;;
20894;SDS011;10607;42.066;24.742;2023-02-15T03:25:47;26.10;;;16.63;;
20894;SDS011;10607;42.066;24.742;2023-02-15T03:28:15;29.40;;;16.57;;
20894;SDS011;10607;42.066;24.742;2023-02-15T03:30:42;26.67;;;16.57;;
20894;SDS011;10607;42.066;24.742;2023-02-15T03:33:08;29.07;;;17.37;;
20894;SDS011;10607;42.066;24.742;2023-02-15T03:36:09;28.70;;;17.20;;
20894;SDS011;10607;42.066;24.742;2023-02-15T03:38:27;27.47;;;16.37;;
20894;SDS011;10607;42.066;24.742;2023-02-15T03:40:53;28.63;;;15.83;;
20894;SDS011;10607;42.066;24.742;2023-02-15T03:46:23;25.87;;;15.93;;
20894;SDS011;10607;42.066;24.742;2023-02-15T03:51:51;26.37;;;16.07;;
20894;SDS011;10607;42.066;24.742;2023-02-15T03:57:06;27.47;;;15.60;;
20894;SDS011;10607;42.066;24.742;2023-02-15T03:59:50;28.17;;;16.50;;
20894;SDS011;10607;42.066;24.742;2023-02-15T04:02:37;27.27;;;16.37;;
20894;SDS011;10607;42.066;24.742;2023-02-15T04:05:03;29.70;;;17.80;;
20894;SDS011;10607;42.066;24.742;2023-02-15T04:07:29;29.07;;;16.90;;
20894;SDS011;10607;42.066;24.742;2023-02-15T04:09:54;28.07;;;16.70;;
20894;SDS011;10607;42.066;24.742;2023-02-15T04:12:38;28.97;;;17.13;;
20894;SDS011;10607;42.066;24.742;2023-02-15T04:15:03;31.90;;;18.27;;
20894;SDS011;10607;42.066;24.742;2023-02-15T04:17:47;34.90;;;17.60;;
20894;SDS011;10607;42.066;24.742;2023-02-15T04:20:12;28.17;;;16.47;;
20894;SDS011;10607;42.066;24.742;2023-02-15T04:22:56;30.90;;;16.73;;
20894;SDS011;10607;42.066;24.742;2023-02-15T04:25:40;28.93;;;16.30;;
20894;SDS011;10607;42.066;24.742;2023-02-15T04:28:05;31.97;;;18.47;;
20894;SDS011;10607;42.066;24.742;2023-02-15T04:30:32;27.87;;;16.53;;
20894;SDS011;10607;42.066;24.742;2023-02-15T04:32:57;29.97;;;18.20;;
20894;SDS011;10607;42.066;24.742;2023-02-15T04:35:23;29.63;;;17.70;;
20894;SDS011;10607;42.066;24.742;2023-02-15T04:37:49;32.13;;;17.07;;
20894;SDS011;10607;42.066;24.742;2023-02-15T04:40:14;29.23;;;16.97;;
20894;SDS011;10607;42.066;24.742;2023-02-15T04:42:40;25.07;;;16.10;;
20894;SDS011;10607;42.066;24.742;2023-02-15T04:45:05;29.47;;;17.47;;
20894;SDS011;10607;42.066;24.742;2023-02-15T04:47:30;26.80;;;17.20;;
20894;SDS011;10607;42.066;24.742;2023-02-15T04:49:56;29.33;;;17.23;;
20894;SDS011;10607;42.066;24.742;2023-02-15T04:52:21;29.10;;;17.33;;
20894;SDS011;10607;42.066;24.742;2023-02-15T04:54:47;27.00;;;17.03;;
20894;SDS011;10607;42.066;24.742;2023-02-15T04:57:12;36.30;;;17.60;;
20894;SDS011;10607;42.066;24.742;2023-02-15T04:59:37;28.60;;;17.50;;
20894;SDS011;10607;42.066;24.742;2023-02-15T05:02:03;29.93;;;17.63;;
20894;SDS011;10607;42.066;24.742;2023-02-15T05:04:28;30.00;;;17.93;;
20894;SDS011;10607;42.066;24.742;2023-02-15T05:06:54;31.30;;;17.93;;
20894;SDS011;10607;42.066;24.742;2023-02-15T05:09:19;26.77;;;16.77;;
20894;SDS011;10607;42.066;24.742;2023-02-15T05:11:44;27.67;;;16.77;;
20894;SDS011;10607;42.066;24.742;2023-02-15T05:14:09;30.00;;;17.30;;
20894;SDS011;10607;42.066;24.742;2023-02-15T05:16:35;33.33;;;18.30;;
20894;SDS011;10607;42.066;24.742;2023-02-15T05:19:00;29.00;;;17.33;;
20894;SDS011;10607;42.066;24.742;2023-02-15T05:21:26;29.77;;;17.43;;
20894;SDS011;10607;42.066;24.742;2023-02-15T05:23:51;28.83;;;17.30;;
20894;SDS011;10607;42.066;24.742;2023-02-15T05:26:17;28.13;;;15.70;;
20894;SDS011;10607;42.066;24.742;2023-02-15T05:29:02;30.03;;;16.80;;
20894;SDS011;10607;42.066;24.742;2023-02-15T05:31:27;29.67;;;15.80;;
20894;SDS011;10607;42.066;24.742;2023-02-15T05:33:52;31.50;;;17.70;;
20894;SDS011;10607;42.066;24.742;2023-02-15T05:36:18;28.57;;;16.90;;
20894;SDS011;10607;42.066;24.742;2023-02-15T05:38:43;28.30;;;16.33;;
20894;SDS011;10607;42.066;24.742;2023-02-15T05:41:09;24.77;;;15.40;;
20894;SDS011;10607;42.066;24.742;2023-02-15T05:43:34;26.73;;;16.70;;
20894;SDS011;10607;42.066;24.742;2023-02-15T05:46:00;27.23;;;15.67;;
20894;SDS011;10607;42.066;24.742;2023-02-15T05:48:26;32.60;;;16.27;;
20894;SDS011;10607;42.066;24.742;2023-02-15T05:50:58;26.73;;;15.87;;
20894;SDS011;10607;42.066;24.742;2023-02-15T05:53:24;26.23;;;16.03;;
20894;SDS011;10607;42.066;24.742;2023-02-15T05:55:49;27.97;;;17.30;;
20894;SDS011;10607;42.066;24.742;2023-02-15T05:58:15;25.90;;;16.03;;
20894;SDS011;10607;42.066;24.742;2023-02-15T06:00:40;24.70;;;15.37;;
20894;SDS011;10607;42.066;24.742;2023-02-15T06:03:05;31.00;;;16.83;;
20894;SDS011;10607;42.066;24.742;2023-02-15T06:05:31;41.60;;;18.77;;
20894;SDS011;10607;42.066;24.742;2023-02-15T06:07:56;26.47;;;16.13;;
20894;SDS011;10607;42.066;24.742;2023-02-15T06:10:21;27.13;;;16.20;;
20894;SDS011;10607;42.066;24.742;2023-02-15T06:12:46;24.97;;;15.60;;
20894;SDS011;10607;42.066;24.742;2023-02-15T06:15:12;24.47;;;15.10;;
20894;SDS011;10607;42.066;24.742;2023-02-15T06:17:40;26.70;;;16.60;;
20894;SDS011;10607;42.066;24.742;2023-02-15T06:20:05;23.53;;;15.03;;
20894;SDS011;10607;42.066;24.742;2023-02-15T06:22:31;25.90;;;14.93;;
20894;SDS011;10607;42.066;24.742;2023-02-15T06:24:56;26.10;;;15.20;;
20894;SDS011;10607;42.066;24.742;2023-02-15T06:27:21;23.47;;;15.03;;
20894;SDS011;10607;42.066;24.742;2023-02-15T06:29:47;23.03;;;14.63;;
20894;SDS011;10607;42.066;24.742;2023-02-15T06:32:12;24.90;;;15.70;;
20894;SDS011;10607;42.066;24.742;2023-02-15T06:34:37;23.77;;;14.75;;
20894;SDS011;10607;42.066;24.742;2023-02-15T06:37:03;23.37;;;14.50;;
20894;SDS011;10607;42.066;24.742;2023-02-15T06:39:28;24.27;;;14.93;;
20894;SDS011;10607;42.066;24.742;2023-02-15T06:41:53;22.85;;;14.73;;
20894;SDS011;10607;42.066;24.742;2023-02-15T06:44:18;19.55;;;14.13;;
20894;SDS011;10607;42.066;24.742;2023-02-15T06:46:44;21.23;;;13.70;;
20894;SDS011;10607;42.066;24.742;2023-02-15T06:49:09;23.88;;;14.50;;
20894;SDS011;10607;42.066;24.742;2023-02-15T06:51:34;26.30;;;14.95;;
20894;SDS011;10607;42.066;24.742;2023-02-15T06:54:00;20.33;;;13.30;;
20894;SDS011;10607;42.066;24.742;2023-02-15T06:56:25;19.08;;;12.77;;
20894;SDS011;10607;42.066;24.742;2023-02-15T06:58:50;19.02;;;13.98;;
20894;SDS011;10607;42.066;24.742;2023-02-15T07:01:17;22.02;;;13.90;;
20894;SDS011;10607;42.066;24.742;2023-02-15T07:03:42;19.42;;;13.32;;
20894;SDS011;10607;42.066;24.742;2023-02-15T07:06:08;19.38;;;14.60;;
20894;SDS011;10607;42.066;24.742;2023-02-15T07:08:35;19.60;;;13.73;;
20894;SDS011;10607;42.066;24.742;2023-02-15T07:11:01;19.30;;;13.20;;
20894;SDS011;10607;42.066;24.742;2023-02-15T07:13:46;18.35;;;13.18;;
20894;SDS011;10607;42.066;24.742;2023-02-15T07:16:12;21.38;;;13.90;;
20894;SDS011;10607;42.066;24.742;2023-02-15T07:18:37;32.17;;;16.27;;
20894;SDS011;10607;42.066;24.742;2023-02-15T07:21:03;18.90;;;13.73;;
20894;SDS011;10607;42.066;24.742;2023-02-15T07:23:28;20.33;;;14.07;;
20894;SDS011;10607;42.066;24.742;2023-02-15T07:25:57;22.17;;;12.70;;
20894;SDS011;10607;42.066;24.742;2023-02-15T07:28:22;21.52;;;13.85;;
20894;SDS011;10607;42.066;24.742;2023-02-15T07:30:48;23.38;;;14.15;;
20894;SDS011;10607;42.066;24.742;2023-02-15T07:33:13;19.02;;;13.65;;
20894;SDS011;10607;42.066;24.742;2023-02-15T07:35:52;19.13;;;12.98;;
20894;SDS011;10607;42.066;24.742;2023-02-15T07:38:18;20.45;;;14.15;;
20894;SDS011;10607;42.066;24.742;2023-02-15T07:40:44;18.65;;;13.52;;
20894;SDS011;10607;42.066;24.742;2023-02-15T07:43:09;22.15;;;14.38;;
20894;SDS011;10607;42.066;24.742;2023-02-15T07:45:34;24.35;;;15.40;;
20894;SDS011;10607;42.066;24.742;2023-02-15T07:48:00;20.35;;;13.48;;
20894;SDS011;10607;42.066;24.742;2023-02-15T07:50:26;31.38;;;13.15;;
20894;SDS011;10607;42.066;24.742;2023-02-15T07:52:51;20.48;;;13.10;;
20894;SDS011;10607;42.066;24.742;2023-02-15T07:55:16;21.83;;;13.57;;
20894;SDS011;10607;42.066;24.742;2023-02-15T07:57:45;18.75;;;12.40;;
20894;SDS011;10607;42.066;24.742;2023-02-15T08:00:11;20.08;;;13.18;;
20894;SDS011;10607;42.066;24.742;2023-02-15T08:02:38;19.85;;;13.20;;
20894;SDS011;10607;42.066;24.742;2023-02-15T08:05:03;23.48;;;13.38;;
20894;SDS011;10607;42.066;24.742;2023-02-15T08:07:28;21.42;;;13.00;;
20894;SDS011;10607;42.066;24.742;2023-02-15T08:09:54;20.65;;;12.60;;
20894;SDS011;10607;42.066;24.742;2023-02-15T08:12:19;21.42;;;12.27;;
20894;SDS011;10607;42.066;24.742;2023-02-15T08:14:44;19.13;;;12.15;;
20894;SDS011;10607;42.066;24.742;2023-02-15T08:17:10;21.50;;;12.40;;
20894;SDS011;10607;42.066;24.742;2023-02-15T08:19:35;24.65;;;13.93;;
20894;SDS011;10607;42.066;24.742;2023-02-15T08:22:02;20.27;;;12.82;;
20894;SDS011;10607;42.066;24.742;2023-02-15T08:24:29;17.65;;;12.85;;
20894;SDS011;10607;42.066;24.742;2023-02-15T08:26:54;19.65;;;12.55;;
20894;SDS011;10607;42.066;24.742;2023-02-15T08:29:24;18.77;;;12.38;;
20894;SDS011;10607;42.066;24.742;2023-02-15T08:31:50;19.17;;;12.32;;
20894;SDS011;10607;42.066;24.742;2023-02-15T08:34:17;19.42;;;12.95;;
20894;SDS011;10607;42.066;24.742;2023-02-15T08:36:43;22.42;;;13.40;;
20894;SDS011;10607;42.066;24.742;2023-02-15T08:39:12;19.05;;;12.63;;
20894;SDS011;10607;42.066;24.742;2023-02-15T08:41:38;21.77;;;13.57;;
20894;SDS011;10607;42.066;24.742;2023-02-15T08:44:04;19.63;;;13.02;;
20894;SDS011;10607;42.066;24.742;2023-02-15T08:46:31;19.60;;;12.13;;
20894;SDS011;10607;42.066;24.742;2023-02-15T08:48:56;20.10;;;13.23;;
20894;SDS011;10607;42.066;24.742;2023-02-15T08:51:40;20.95;;;13.20;;
20894;SDS011;10607;42.066;24.742;2023-02-15T08:54:07;17.92;;;12.90;;
20894;SDS011;10607;42.066;24.742;2023-02-15T08:56:35;20.00;;;13.35;;
20894;SDS011;10607;42.066;24.742;2023-02-15T08:59:01;18.95;;;12.18;;
20894;SDS011;10607;42.066;24.742;2023-02-15T09:01:27;21.13;;;12.88;;
20894;SDS011;10607;42.066;24.742;2023-02-15T09:03:57;18.63;;;12.35;;
20894;SDS011;10607;42.066;24.742;2023-02-15T09:06:22;19.25;;;12.68;;
20894;SDS011;10607;42.066;24.742;2023-02-15T09:08:48;21.38;;;14.95;;
20894;SDS011;10607;42.066;24.742;2023-02-15T09:11:20;22.98;;;15.13;;
20894;SDS011;10607;42.066;24.742;2023-02-15T09:13:52;21.73;;;13.30;;
20894;SDS011;10607;42.066;24.742;2023-02-15T09:16:19;20.00;;;13.15;;
20894;SDS011;10607;42.066;24.742;2023-02-15T09:18:45;21.33;;;14.82;;
20894;SDS011;10607;42.066;24.742;2023-02-15T09:21:11;23.67;;;13.88;;
20894;SDS011;10607;42.066;24.742;2023-02-15T09:23:38;22.13;;;13.57;;
20894;SDS011;10607;42.066;24.742;2023-02-15T09:26:05;24.52;;;14.02;;
20894;SDS011;10607;42.066;24.742;2023-02-15T09:28:31;19.50;;;14.07;;
20894;SDS011;10607;42.066;24.742;2023-02-15T09:31:03;21.48;;;14.45;;
20894;SDS011;10607;42.066;24.742;2023-02-15T09:33:29;21.00;;;13.50;;
20894;SDS011;10607;42.066;24.742;2023-02-15T09:35:54;22.10;;;13.10;;
20894;SDS011;10607;42.066;24.742;2023-02-15T09:38:21;20.50;;;14.57;;
20894;SDS011;10607;42.066;24.742;2023-02-15T09:40:49;20.48;;;13.45;;
20894;SDS011;10607;42.066;24.742;2023-02-15T09:43:32;22.40;;;13.85;;
20894;SDS011;10607;42.066;24.742;2023-02-15T09:46:08;19.63;;;13.45;;
20894;SDS011;10607;42.066;24.742;2023-02-15T09:48:38;19.45;;;12.57;;
20894;SDS011;10607;42.066;24.742;2023-02-15T09:51:08;19.83;;;13.25;;
20894;SDS011;10607;42.066;24.742;2023-02-15T09:56:22;20.17;;;13.15;;
20894;SDS011;10607;42.066;24.742;2023-02-15T10:06:42;18.17;;;12.40;;
20894;SDS011;10607;42.066;24.742;2023-02-15T10:09:15;20.77;;;12.60;;
20894;SDS011;10607;42.066;24.742;2023-02-15T10:11:47;18.13;;;12.90;;
20894;SDS011;10607;42.066;24.742;2023-02-15T10:19:18;21.23;;;13.98;;
20894;SDS011;10607;42.066;24.742;2023-02-15T10:26:47;20.75;;;13.27;;
20894;SDS011;10607;42.066;24.742;2023-02-15T10:31:51;29.25;;;14.77;;
20894;SDS011;10607;42.066;24.742;2023-02-15T10:43:08;20.38;;;13.98;;
20894;SDS011;10607;42.066;24.742;2023-02-15T10:45:32;19.95;;;13.15;;
20894;SDS011;10607;42.066;24.742;2023-02-15T10:48:26;23.25;;;14.10;;
20894;SDS011;10607;42.066;24.742;2023-02-15T10:50:55;19.15;;;12.90;;
20894;SDS011;10607;42.066;24.742;2023-02-15T10:53:25;22.02;;;14.18;;
20894;SDS011;10607;42.066;24.742;2023-02-15T10:56:30;17.85;;;13.45;;
20894;SDS011;10607;42.066;24.742;2023-02-15T11:01:27;20.33;;;12.75;;
20894;SDS011;10607;42.066;24.742;2023-02-15T11:06:23;20.65;;;13.43;;
20894;SDS011;10607;42.066;24.742;2023-02-15T11:08:55;19.58;;;13.20;;
20894;SDS011;10607;42.066;24.742;2023-02-15T11:11:22;21.48;;;13.48;;
20894;SDS011;10607;42.066;24.742;2023-02-15T11:13:49;23.60;;;14.23;;
20894;SDS011;10607;42.066;24.742;2023-02-15T11:16:17;18.77;;;13.50;;
20894;SDS011;10607;42.066;24.742;2023-02-15T11:18:51;17.42;;;12.05;;
20894;SDS011;10607;42.066;24.742;2023-02-15T11:21:22;16.58;;;11.88;;
20894;SDS011;10607;42.066;24.742;2023-02-15T11:23:49;19.27;;;13.95;;
20894;SDS011;10607;42.066;24.742;2023-02-15T11:26:28;23.55;;;13.43;;
20894;SDS011;10607;42.066;24.742;2023-02-15T11:29:01;22.17;;;14.23;;
20894;SDS011;10607;42.066;24.742;2023-02-15T11:31:36;19.58;;;12.73;;
20894;SDS011;10607;42.066;24.742;2023-02-15T11:34:10;20.70;;;13.60;;
20894;SDS011;10607;42.066;24.742;2023-02-15T11:36:37;25.13;;;14.07;;
20894;SDS011;10607;42.066;24.742;2023-02-15T11:39:09;18.20;;;12.63;;
20894;SDS011;10607;42.066;24.742;2023-02-15T11:41:37;18.80;;;13.02;;
20894;SDS011;10607;42.066;24.742;2023-02-15T11:44:10;21.40;;;13.07;;
20894;SDS011;10607;42.066;24.742;2023-02-15T11:46:37;23.88;;;13.77;;
20894;SDS011;10607;42.066;24.742;2023-02-15T11:49:08;22.83;;;13.63;;
20894;SDS011;10607;42.066;24.742;2023-02-15T11:51:35;20.35;;;13.93;;
20894;SDS011;10607;42.066;24.742;2023-02-15T11:54:00;21.02;;;13.70;;
20894;SDS011;10607;42.066;24.742;2023-02-15T11:56:30;21.65;;;13.20;;
20894;SDS011;10607;42.066;24.742;2023-02-15T12:01:30;18.35;;;13.25;;
20894;SDS011;10607;42.066;24.742;2023-02-15T12:06:42;19.67;;;13.13;;
20894;SDS011;10607;42.066;24.742;2023-02-15T12:09:24;21.25;;;14.25;;
20894;SDS011;10607;42.066;24.742;2023-02-15T12:11:52;22.17;;;13.50;;
20894;SDS011;10607;42.066;24.742;2023-02-15T12:14:17;20.35;;;12.98;;
20894;SDS011;10607;42.066;24.742;2023-02-15T12:16:47;18.02;;;12.90;;
20894;SDS011;10607;42.066;24.742;2023-02-15T12:19:21;19.55;;;13.32;;
20894;SDS011;10607;42.066;24.742;2023-02-15T12:21:50;17.73;;;12.32;;
20894;SDS011;10607;42.066;24.742;2023-02-15T12:24:20;20.77;;;12.40;;
20894;SDS011;10607;42.066;24.742;2023-02-15T12:26:56;25.63;;;13.73;;
20894;SDS011;10607;42.066;24.742;2023-02-15T12:29:23;20.00;;;13.38;;
20894;SDS011;10607;42.066;24.742;2023-02-15T12:31:50;21.60;;;12.68;;
20894;SDS011;10607;42.066;24.742;2023-02-15T12:34:26;24.75;;;13.13;;
20894;SDS011;10607;42.066;24.742;2023-02-15T12:36:55;18.48;;;12.63;;
20894;SDS011;10607;42.066;24.742;2023-02-15T12:44:19;33.63;;;18.95;;
20894;SDS011;10607;42.066;24.742;2023-02-15T12:49:29;36.50;;;19.48;;
20894;SDS011;10607;42.066;24.742;2023-02-15T12:51:56;26.50;;;14.98;;
20894;SDS011;10607;42.066;24.742;2023-02-15T12:56:47;21.92;;;12.73;;
20894;SDS011;10607;42.066;24.742;2023-02-15T12:59:13;35.38;;;16.52;;
20894;SDS011;10607;42.066;24.742;2023-02-15T13:01:40;28.98;;;15.10;;
20894;SDS011;10607;42.066;24.742;2023-02-15T13:04:28;39.35;;;20.63;;
20894;SDS011;10607;42.066;24.742;2023-02-15T13:06:53;21.92;;;12.27;;
20894;SDS011;10607;42.066;24.742;2023-02-15T13:11:47;15.27;;;10.85;;
20894;SDS011;10607;42.066;24.742;2023-02-15T13:14:17;15.60;;;11.25;;
20894;SDS011;10607;42.066;24.742;2023-02-15T13:16:44;17.42;;;12.02;;
20894;SDS011;10607;42.066;24.742;2023-02-15T13:19:17;14.25;;;10.63;;
20894;SDS011;10607;42.066;24.742;2023-02-15T13:21:47;16.90;;;10.80;;
20894;SDS011;10607;42.066;24.742;2023-02-15T13:26:41;14.63;;;10.65;;
20894;SDS011;10607;42.066;24.742;2023-02-15T13:29:12;18.50;;;11.05;;
20894;SDS011;10607;42.066;24.742;2023-02-15T13:31:41;18.75;;;11.25;;
20894;SDS011;10607;42.066;24.742;2023-02-15T13:44:31;14.88;;;10.18;;
20894;SDS011;10607;42.066;24.742;2023-02-15T13:49:50;20.80;;;10.48;;
20894;SDS011;10607;42.066;24.742;2023-02-15T14:07:52;19.50;;;12.02;;
20894;SDS011;10607;42.066;24.742;2023-02-15T14:13:05;17.25;;;11.77;;
20894;SDS011;10607;42.066;24.742;2023-02-15T14:31:16;23.10;;;11.98;;
20894;SDS011;10607;42.066;24.742;2023-02-15T14:33:57;17.75;;;11.23;;
20894;SDS011;10607;42.066;24.742;2023-02-15T14:36:22;20.60;;;11.90;;
20894;SDS011;10607;42.066;24.742;2023-02-15T14:41:53;19.80;;;11.77;;
20894;SDS011;10607;42.066;24.742;2023-02-15T14:44:27;20.85;;;10.77;;
20894;SDS011;10607;42.066;24.742;2023-02-15T14:46:57;18.08;;;11.43;;
20894;SDS011;10607;42.066;24.742;2023-02-15T14:49:30;18.48;;;10.88;;
20894;SDS011;10607;42.066;24.742;2023-02-15T14:52:03;14.63;;;10.07;;
20894;SDS011;10607;42.066;24.742;2023-02-15T14:59:25;16.85;;;11.25;;
20894;SDS011;10607;42.066;24.742;2023-02-15T15:02:13;19.60;;;10.80;;
20894;SDS011;10607;42.066;24.742;2023-02-15T15:04:38;18.63;;;11.10;;
20894;SDS011;10607;42.066;24.742;2023-02-15T15:09:31;22.23;;;12.07;;
20894;SDS011;10607;42.066;24.742;2023-02-15T15:14:43;18.95;;;11.27;;
20894;SDS011;10607;42.066;24.742;2023-02-15T15:17:13;17.95;;;10.70;;
20894;SDS011;10607;42.066;24.742;2023-02-15T15:22:11;23.33;;;12.40;;
20894;SDS011;10607;42.066;24.742;2023-02-15T15:29:50;18.70;;;11.23;;
20894;SDS011;10607;42.066;24.742;2023-02-15T15:32:16;26.55;;;12.40;;
20894;SDS011;10607;42.066;24.742;2023-02-15T15:42:51;20.80;;;11.65;;
20894;SDS011;10607;42.066;24.742;2023-02-15T15:47:58;16.40;;;10.50;;
20894;SDS011;10607;42.066;24.742;2023-02-15T15:50:27;19.97;;;11.27;;
20894;SDS011;10607;42.066;24.742;2023-02-15T15:52:57;16.43;;;10.20;;
20894;SDS011;10607;42.066;24.742;2023-02-15T15:55:24;16.97;;;10.50;;
20894;SDS011;10607;42.066;24.742;2023-02-15T15:57:51;17.00;;;10.40;;
20894;SDS011;10607;42.066;24.742;2023-02-15T16:03:00;18.40;;;10.80;;
20894;SDS011;10607;42.066;24.742;2023-02-15T16:05:26;16.70;;;10.40;;
20894;SDS011;10607;42.066;24.742;2023-02-15T16:07:51;16.53;;;9.87;;
20894;SDS011;10607;42.066;24.742;2023-02-15T16:10:21;14.67;;;10.33;;
20894;SDS011;10607;42.066;24.742;2023-02-15T16:12:46;17.47;;;11.07;;
20894;SDS011;10607;42.066;24.742;2023-02-15T16:15:19;24.60;;;12.83;;
20894;SDS011;10607;42.066;24.742;2023-02-15T16:17:47;25.87;;;12.87;;
20894;SDS011;10607;42.066;24.742;2023-02-15T16:20:15;19.43;;;10.93;;
20894;SDS011;10607;42.066;24.742;2023-02-15T16:22:43;17.07;;;9.80;;
20894;SDS011;10607;42.066;24.742;2023-02-15T16:28:12;16.00;;;10.40;;
20894;SDS011;10607;42.066;24.742;2023-02-15T16:30:38;19.10;;;10.87;;
20894;SDS011;10607;42.066;24.742;2023-02-15T16:35:30;19.83;;;11.00;;
20894;SDS011;10607;42.066;24.742;2023-02-15T16:37:56;21.23;;;11.50;;
20894;SDS011;10607;42.066;24.742;2023-02-15T16:42:50;19.70;;;10.60;;
20894;SDS011;10607;42.066;24.742;2023-02-15T16:45:16;17.37;;;10.77;;
20894;SDS011;10607;42.066;24.742;2023-02-15T16:47:44;22.80;;;12.47;;
20894;SDS011;10607;42.066;24.742;2023-02-15T16:50:20;24.60;;;14.53;;
20894;SDS011;10607;42.066;24.742;2023-02-15T16:52:46;108.57;;;55.53;;
20894;SDS011;10607;42.066;24.742;2023-02-15T16:55:19;67.77;;;38.73;;
20894;SDS011;10607;42.066;24.742;2023-02-15T16:57:45;26.63;;;15.83;;
20894;SDS011;10607;42.066;24.742;2023-02-15T17:00:17;19.87;;;13.80;;
20894;SDS011;10607;42.066;24.742;2023-02-15T17:02:52;23.43;;;13.87;;
20894;SDS011;10607;42.066;24.742;2023-02-15T17:05:18;21.90;;;13.27;;
20894;SDS011;10607;42.066;24.742;2023-02-15T17:07:52;20.60;;;12.53;;
20894;SDS011;10607;42.066;24.742;2023-02-15T17:10:30;26.03;;;13.97;;
20894;SDS011;10607;42.066;24.742;2023-02-15T17:13:12;31.63;;;14.77;;
20894;SDS011;10607;42.066;24.742;2023-02-15T17:15:42;25.93;;;14.70;;
20894;SDS011;10607;42.066;24.742;2023-02-15T17:18:18;21.87;;;14.27;;
20894;SDS011;10607;42.066;24.742;2023-02-15T17:20:44;24.73;;;14.43;;